Time;durP1;ratioP1;P1;durP2;ratioP2;P2;SDS_P1;SDS_P2;PMS_P1;PMS_P2;Temp;Humidity;BMP_temperature;BMP_pressure;BME280_temperature;BME280_humidity;BME280_pressure;Samples;Min_cycle;Max_cycle;Signal;HPM_P1;HPM_P2
2021/03/13 00:00:13;;;;;;;0.50;0.50;;;10.80;58.20;;;;;;5070501;28;20892;-43
2021/03/13 00:02:40;;;;;;;1.63;0.60;;;10.80;58.30;;;;;;5070838;28;20192;-42
2021/03/13 00:05:07;;;;;;;0.90;0.70;;;10.80;58.30;;;;;;5068752;28;20513;-42
2021/03/13 00:07:33;;;;;;;0.80;0.60;;;10.70;58.10;;;;;;5070626;28;20434;-42
2021/03/13 00:09:58;;;;;;;0.80;0.80;;;10.70;58.30;;;;;;5060744;28;20473;-42
2021/03/13 00:12:24;;;;;;;0.73;0.60;;;10.60;58.50;;;;;;5069330;28;20192;-43
2021/03/13 00:14:50;;;;;;;1.03;0.77;;;10.70;58.20;;;;;;5059738;28;20614;-43
2021/03/13 00:17:15;;;;;;;2.10;1.00;;;10.60;58.00;;;;;;5071237;28;20192;-42
2021/03/13 00:19:41;;;;;;;1.63;0.73;;;10.50;58.20;;;;;;5066180;28;20615;-43
2021/03/13 00:22:06;;;;;;;1.60;0.63;;;10.30;58.70;;;;;;5074099;28;20196;-42
2021/03/13 00:24:32;;;;;;;1.80;0.77;;;10.00;59.30;;;;;;5069992;28;20224;-42
2021/03/13 00:26:58;;;;;;;3.90;1.10;;;9.70;61.00;;;;;;5070585;28;20581;-42
2021/03/13 00:29:23;;;;;;;1.03;0.53;;;9.20;63.00;;;;;;5070776;28;20615;-42
2021/03/13 00:31:53;;;;;;;0.50;0.50;;;9.00;64.30;;;;;;5069272;28;20223;-42
2021/03/13 00:34:20;;;;;;;4.57;0.70;;;9.20;66.00;;;;;;5070546;28;20282;-43
2021/03/13 00:36:46;;;;;;;2.50;0.60;;;9.40;65.80;;;;;;5059458;28;20434;-42
2021/03/13 00:39:12;;;;;;;1.60;0.60;;;9.40;65.50;;;;;;5072299;28;20525;-42
2021/03/13 00:41:38;;;;;;;1.63;0.60;;;9.50;65.00;;;;;;5063665;28;20517;-42
2021/03/13 00:44:03;;;;;;;1.57;0.60;;;9.70;64.50;;;;;;5068466;28;20195;-43
2021/03/13 00:46:29;;;;;;;1.00;0.60;;;9.70;63.90;;;;;;5070597;28;20203;-42
2021/03/13 00:48:55;;;;;;;1.83;0.70;;;9.60;64.10;;;;;;5070307;28;20194;-42
2021/03/13 00:51:20;;;;;;;3.73;0.63;;;9.80;64.00;;;;;;5071087;28;20601;-44
2021/03/13 00:53:46;;;;;;;2.00;0.80;;;9.80;63.40;;;;;;5074983;28;20271;-42
2021/03/13 00:56:11;;;;;;;3.40;0.70;;;9.90;63.30;;;;;;5074680;28;20195;-42
2021/03/13 00:58:37;;;;;;;1.43;0.97;;;9.80;63.20;;;;;;5073643;28;20246;-42
2021/03/13 01:01:04;;;;;;;1.47;0.70;;;9.60;63.20;;;;;;5069720;28;20200;-42
2021/03/13 01:03:30;;;;;;;0.70;0.70;;;9.70;63.60;;;;;;5074004;28;20200;-42
2021/03/13 01:05:55;;;;;;;1.17;0.90;;;9.60;63.30;;;;;;5072088;28;20485;-42
2021/03/13 01:08:21;;;;;;;4.63;2.30;;;9.50;64.00;;;;;;5067453;28;20188;-42
2021/03/13 01:10:48;;;;;;;1.00;0.63;;;9.30;63.20;;;;;;5072544;28;20210;-42
2021/03/13 01:13:15;;;;;;;2.73;1.33;;;9.20;63.60;;;;;;5074866;28;20191;-42
2021/03/13 01:15:40;;;;;;;3.53;0.80;;;9.00;64.00;;;;;;5067810;28;20488;-42
2021/03/13 01:18:06;;;;;;;0.87;0.70;;;9.00;65.20;;;;;;5050691;28;20425;-43
2021/03/13 01:20:32;;;;;;;0.60;0.60;;;8.90;65.90;;;;;;5073717;28;20203;-42
2021/03/13 01:22:58;;;;;;;2.43;0.70;;;8.80;66.50;;;;;;5071469;28;20199;-43
2021/03/13 01:25:23;;;;;;;0.80;0.53;;;8.90;67.40;;;;;;5071823;28;20488;-42
2021/03/13 01:27:49;;;;;;;1.17;0.60;;;9.00;67.00;;;;;;5070944;28;20226;-42
2021/03/13 01:30:19;;;;;;;0.70;0.70;;;9.00;67.30;;;;;;5073434;28;20314;-42
2021/03/13 01:32:44;;;;;;;1.03;0.50;;;8.90;67.10;;;;;;5073783;28;20243;-43
2021/03/13 01:35:11;;;;;;;0.50;0.50;;;9.00;67.40;;;;;;5069432;28;20457;-42
2021/03/13 01:37:37;;;;;;;1.13;0.70;;;8.90;66.80;;;;;;5074122;28;20287;-42
2021/03/13 01:40:06;;;;;;;0.67;0.60;;;9.00;67.10;;;;;;5072527;28;20587;-42
2021/03/13 01:42:32;;;;;;;0.70;0.53;;;9.00;66.80;;;;;;5068629;28;20445;-43
2021/03/13 01:44:58;;;;;;;0.50;0.50;;;9.10;66.50;;;;;;5059871;28;20981;-43
2021/03/13 01:47:27;;;;;;;1.43;0.80;;;9.20;66.50;;;;;;5072888;28;20466;-43
2021/03/13 01:49:54;;;;;;;1.03;0.77;;;9.30;65.90;;;;;;5072468;28;20665;-42
2021/03/13 01:52:20;;;;;;;0.57;0.57;;;9.40;65.30;;;;;;5072729;28;20525;-42
2021/03/13 01:54:47;;;;;;;0.83;0.60;;;9.70;65.00;;;;;;5072968;28;20993;-43
2021/03/13 01:57:15;;;;;;;1.60;0.70;;;9.70;64.50;;;;;;5073055;28;20203;-43
2021/03/13 01:59:41;;;;;;;1.23;0.90;;;9.60;65.00;;;;;;5072545;28;20922;-42
2021/03/13 02:02:09;;;;;;;1.23;0.70;;;9.80;64.00;;;;;;5070622;28;20431;-42
2021/03/13 02:04:39;;;;;;;1.53;0.70;;;10.10;62.20;;;;;;5076148;28;20219;-42
2021/03/13 02:07:45;;;;;;;1.97;0.70;;;10.20;61.70;;;;;;5073478;28;20442;-42
2021/03/13 02:10:34;;;;;;;0.60;0.60;;;10.20;61.10;;;;;;5065223;28;20497;-42
2021/03/13 02:13:17;;;;;;;0.70;0.70;;;10.30;61.00;;;;;;5063739;28;20437;-43
2021/03/13 02:16:11;;;;;;;2.63;0.60;;;10.30;60.80;;;;;;5072050;28;20446;-42
2021/03/13 02:18:41;;;;;;;0.80;0.80;;;10.30;60.70;;;;;;5071776;28;20427;-42
2021/03/13 02:21:12;;;;;;;1.00;0.90;;;10.30;60.20;;;;;;5072504;28;20790;-42
2021/03/13 02:23:54;;;;;;;0.70;0.70;;;10.30;60.30;;;;;;5067552;28;20430;-42
2021/03/13 02:26:29;;;;;;;0.80;0.80;;;10.40;60.20;;;;;;5071609;28;20442;-42
2021/03/13 02:29:25;;;;;;;1.50;0.80;;;10.60;59.80;;;;;;5071599;28;20517;-42
2021/03/13 02:31:56;;;;;;;1.33;0.97;;;10.60;59.50;;;;;;5070260;28;20466;-42
2021/03/13 02:34:28;;;;;;;1.20;0.77;;;10.50;59.60;;;;;;5055164;28;20441;-42
2021/03/13 02:36:57;;;;;;;2.60;1.07;;;10.50;59.60;;;;;;5065040;28;20435;-42
2021/03/13 02:39:27;;;;;;;5.90;0.70;;;10.40;59.80;;;;;;5071556;28;20430;-42
2021/03/13 02:42:00;;;;;;;0.90;0.67;;;10.20;59.80;;;;;;5069921;28;20438;-42
2021/03/13 02:44:27;;;;;;;1.83;1.03;;;10.30;60.20;;;;;;5069605;28;20470;-43
2021/03/13 02:46:53;;;;;;;2.70;0.60;;;10.40;59.90;;;;;;5069832;28;20439;-43
2021/03/13 02:49:20;;;;;;;11.50;0.87;;;10.40;59.60;;;;;;5066202;28;20745;-43
2021/03/13 02:51:47;;;;;;;1.97;0.90;;;10.50;59.60;;;;;;5071579;28;20968;-43
2021/03/13 02:54:14;;;;;;;1.53;0.90;;;10.50;59.50;;;;;;5069294;28;20430;-42
2021/03/13 02:56:42;;;;;;;1.97;1.00;;;10.50;59.40;;;;;;5071277;28;20461;-42
2021/03/13 02:59:09;;;;;;;3.50;0.87;;;10.40;59.20;;;;;;5068280;28;20438;-43
2021/03/13 03:01:37;;;;;;;3.13;0.93;;;10.30;59.20;;;;;;5066901;28;20521;-43
2021/03/13 03:04:04;;;;;;;1.23;0.70;;;10.30;59.20;;;;;;5068356;28;20447;-42
2021/03/13 03:06:40;;;;;;;1.23;1.03;;;10.20;59.30;;;;;;5072182;28;20532;-44
2021/03/13 03:09:07;;;;;;;3.77;0.90;;;10.40;59.30;;;;;;5070403;28;20949;-42
2021/03/13 03:11:33;;;;;;;0.80;0.80;;;10.20;59.00;;;;;;5067584;28;20437;-42
2021/03/13 03:13:59;;;;;;;2.40;0.73;;;10.30;59.00;;;;;;5058617;28;20446;-43
2021/03/13 03:16:26;;;;;;;4.03;1.20;;;10.30;58.80;;;;;;5070790;28;20438;-42
2021/03/13 03:18:56;;;;;;;3.77;0.97;;;10.10;58.30;;;;;;5068296;28;20184;-43
2021/03/13 03:21:22;;;;;;;3.10;0.87;;;10.10;58.80;;;;;;5070326;28;20442;-42
2021/03/13 03:23:48;;;;;;;4.37;0.90;;;10.20;58.70;;;;;;5071297;28;20434;-43
2021/03/13 03:26:14;;;;;;;2.20;0.90;;;10.00;58.30;;;;;;5069405;28;20592;-42
2021/03/13 03:28:40;;;;;;;2.83;1.00;;;10.20;58.50;;;;;;5070774;28;20440;-43
2021/03/13 03:31:05;;;;;;;6.13;1.30;;;10.10;58.30;;;;;;5070338;28;20239;-42
2021/03/13 03:33:31;;;;;;;4.23;1.03;;;10.20;58.20;;;;;;5066268;28;20200;-42
2021/03/13 03:35:57;;;;;;;0.90;0.80;;;10.10;58.00;;;;;;5069617;28;20214;-43
2021/03/13 03:38:22;;;;;;;4.43;1.03;;;10.10;58.20;;;;;;5068266;28;20226;-42
2021/03/13 03:40:48;;;;;;;1.50;0.90;;;10.10;58.20;;;;;;5070760;28;20195;-42
2021/03/13 03:43:35;;;;;;;1.80;0.80;;;10.20;58.00;;;;;;5065390;28;20449;-43
2021/03/13 03:46:04;;;;;;;1.33;0.93;;;10.30;57.80;;;;;;5071723;28;20492;-42
2021/03/13 03:48:30;;;;;;;1.60;0.70;;;10.10;57.90;;;;;;5071737;28;20469;-43
2021/03/13 03:50:56;;;;;;;1.17;1.07;;;10.10;57.90;;;;;;5058637;28;20445;-42
2021/03/13 03:53:32;;;;;;;2.50;0.87;;;9.90;58.70;;;;;;5068772;28;20438;-43
2021/03/13 03:56:01;;;;;;;6.93;1.00;;;9.80;59.10;;;;;;5065897;28;20438;-42
2021/03/13 03:58:32;;;;;;;2.67;1.47;;;9.90;59.20;;;;;;5071236;28;20957;-43
2021/03/13 04:00:59;;;;;;;1.73;1.10;;;10.10;57.90;;;;;;5060523;28;20462;-42
2021/03/13 04:03:26;;;;;;;2.43;1.13;;;10.10;57.50;;;;;;5073531;28;20438;-42
2021/03/13 04:05:53;;;;;;;2.07;0.90;;;10.20;57.70;;;;;;5068494;28;20854;-43
2021/03/13 04:08:20;;;;;;;3.80;0.77;;;10.40;57.10;;;;;;5070471;28;20431;-43
2021/03/13 04:10:50;;;;;;;1.47;0.80;;;10.40;56.80;;;;;;5070083;28;20885;-43
2021/03/13 04:13:18;;;;;;;4.50;1.20;;;10.70;56.70;;;;;;5059718;28;20938;-42
2021/03/13 04:15:46;;;;;;;3.60;0.80;;;10.80;55.80;;;;;;5070613;28;20438;-43
2021/03/13 04:18:13;;;;;;;3.53;1.33;;;10.60;55.90;;;;;;5070165;28;20430;-42
2021/03/13 04:20:40;;;;;;;1.10;0.87;;;10.50;56.10;;;;;;5061474;28;20447;-43
2021/03/13 04:23:07;;;;;;;6.40;1.10;;;10.50;56.80;;;;;;5070756;28;20430;-42
2021/03/13 04:25:33;;;;;;;1.23;0.80;;;10.40;56.70;;;;;;5069437;28;20705;-42
2021/03/13 04:27:59;;;;;;;1.37;0.93;;;10.50;56.80;;;;;;5070787;28;20430;-43
2021/03/13 04:30:26;;;;;;;1.63;0.97;;;10.40;56.80;;;;;;5069120;28;20472;-42
2021/03/13 04:32:54;;;;;;;1.23;0.80;;;10.30;56.80;;;;;;5070062;28;20433;-42
2021/03/13 04:35:20;;;;;;;2.63;0.97;;;10.70;56.90;;;;;;5069385;28;20480;-43
2021/03/13 04:37:48;;;;;;;3.27;0.80;;;10.70;56.20;;;;;;5078907;28;20438;-43
2021/03/13 04:40:15;;;;;;;2.43;0.93;;;10.80;56.20;;;;;;5063449;28;20472;-42
2021/03/13 04:42:43;;;;;;;1.13;1.03;;;10.90;56.10;;;;;;5071054;28;20437;-43
2021/03/13 04:45:10;;;;;;;0.90;0.70;;;11.00;56.10;;;;;;5069885;28;20897;-43
2021/03/13 04:47:37;;;;;;;0.77;0.77;;;10.90;55.60;;;;;;5066757;28;20556;-42
2021/03/13 04:50:04;;;;;;;1.60;0.80;;;10.90;55.80;;;;;;5058899;28;20440;-43
2021/03/13 04:52:30;;;;;;;1.23;0.80;;;10.90;56.10;;;;;;5070793;28;20460;-42
2021/03/13 04:54:55;;;;;;;1.37;0.63;;;11.00;55.70;;;;;;5068623;28;20445;-42
2021/03/13 04:57:21;;;;;;;1.53;0.80;;;11.00;55.80;;;;;;5066223;28;20192;-43
2021/03/13 04:59:47;;;;;;;1.00;0.80;;;11.00;55.70;;;;;;5068529;28;20660;-42
2021/03/13 05:02:12;;;;;;;3.17;1.00;;;11.20;55.40;;;;;;5063900;28;20283;-43
2021/03/13 05:04:38;;;;;;;1.70;0.97;;;11.20;55.10;;;;;;5070492;28;20270;-43
2021/03/13 05:07:03;;;;;;;2.23;1.00;;;11.30;55.40;;;;;;5069857;28;20207;-43
2021/03/13 05:09:29;;;;;;;1.70;0.77;;;11.40;55.30;;;;;;5069812;28;20670;-42
2021/03/13 05:11:55;;;;;;;3.50;1.17;;;11.30;54.80;;;;;;5071155;28;20241;-42
2021/03/13 05:14:20;;;;;;;1.37;0.73;;;11.20;55.20;;;;;;5063230;28;20227;-42
2021/03/13 05:16:46;;;;;;;6.80;1.33;;;11.00;55.40;;;;;;5068467;28;20291;-43
2021/03/13 05:19:11;;;;;;;2.63;1.20;;;11.20;55.30;;;;;;5061524;28;20223;-42
2021/03/13 05:21:37;;;;;;;3.13;0.80;;;11.20;55.10;;;;;;5065025;28;20651;-42
2021/03/13 05:24:03;;;;;;;3.87;1.40;;;11.20;55.00;;;;;;5070402;28;20192;-43
2021/03/13 05:26:28;;;;;;;0.57;0.53;;;11.20;55.20;;;;;;5068244;28;20536;-42
2021/03/13 05:28:54;;;;;;;0.60;0.53;;;11.30;55.20;;;;;;5072914;28;20207;-44
2021/03/13 05:31:19;;;;;;;2.27;0.80;;;11.20;55.20;;;;;;5069047;28;20649;-43
2021/03/13 05:33:45;;;;;;;1.43;0.70;;;11.30;55.20;;;;;;5070195;28;20200;-42
2021/03/13 05:36:11;;;;;;;1.30;0.80;;;11.60;54.90;;;;;;5069139;28;20234;-44
2021/03/13 05:38:37;;;;;;;1.80;0.70;;;11.60;54.60;;;;;;5060232;28;20196;-44
2021/03/13 05:41:03;;;;;;;3.00;0.90;;;11.60;54.10;;;;;;5068463;28;20437;-44
2021/03/13 05:43:30;;;;;;;1.00;0.70;;;11.50;54.30;;;;;;5060294;28;20192;-43
2021/03/13 05:45:55;;;;;;;1.93;0.93;;;11.50;54.60;;;;;;5071735;28;20481;-43
2021/03/13 05:48:23;;;;;;;1.23;0.90;;;11.30;54.30;;;;;;5071145;28;20441;-44
2021/03/13 05:50:49;;;;;;;1.33;0.80;;;11.10;54.70;;;;;;5071378;28;20682;-45
2021/03/13 05:53:15;;;;;;;2.37;0.87;;;11.20;55.00;;;;;;5073832;28;20994;-44
2021/03/13 05:55:42;;;;;;;1.00;0.70;;;11.20;54.80;;;;;;5070748;28;20430;-44
2021/03/13 05:58:08;;;;;;;2.40;0.90;;;11.10;54.70;;;;;;5062232;28;20430;-44
2021/03/13 06:00:36;;;;;;;2.70;0.80;;;11.30;54.70;;;;;;5066668;28;20545;-44
2021/03/13 06:03:02;;;;;;;0.80;0.70;;;11.20;54.60;;;;;;5072775;28;20867;-43
2021/03/13 06:05:28;;;;;;;1.33;0.70;;;11.10;54.60;;;;;;5071019;28;20492;-44
2021/03/13 06:07:55;;;;;;;1.87;0.80;;;11.10;54.80;;;;;;5066295;28;20803;-43
2021/03/13 06:10:22;;;;;;;2.10;0.80;;;11.00;55.00;;;;;;5070480;28;20192;-44
2021/03/13 06:12:48;;;;;;;1.80;1.20;;;11.10;55.10;;;;;;5070753;28;20434;-43
2021/03/13 06:15:14;;;;;;;1.80;0.97;;;11.30;54.80;;;;;;5071993;28;20438;-44
2021/03/13 06:17:54;;;;;;;0.90;0.70;;;11.20;54.40;;;;;;5073105;28;21166;-43
2021/03/13 06:20:31;;;;;;;2.00;0.93;;;11.30;54.10;;;;;;5073323;28;20446;-45
2021/03/13 06:23:01;;;;;;;3.60;0.87;;;11.30;53.90;;;;;;5066382;28;20945;-43
2021/03/13 06:25:28;;;;;;;1.60;1.00;;;11.20;54.00;;;;;;5071154;28;20492;-43
2021/03/13 06:28:02;;;;;;;2.23;0.83;;;10.90;54.20;;;;;;5072484;28;20438;-43
2021/03/13 06:30:33;;;;;;;2.53;0.70;;;11.10;54.30;;;;;;5064062;28;20501;-44
2021/03/13 06:32:58;;;;;;;2.67;0.70;;;11.10;54.30;;;;;;5072134;28;20807;-43
2021/03/13 06:35:28;;;;;;;5.43;1.10;;;11.30;54.10;;;;;;5067578;28;20435;-44
2021/03/13 06:37:56;;;;;;;1.90;0.83;;;11.50;53.40;;;;;;5068432;28;20582;-44
2021/03/13 06:40:27;;;;;;;1.00;0.60;;;11.70;52.70;;;;;;5072015;28;21031;-43
2021/03/13 06:42:54;;;;;;;1.27;0.70;;;11.70;52.40;;;;;;5072574;28;20473;-44
2021/03/13 06:45:20;;;;;;;2.63;1.13;;;11.50;52.60;;;;;;5072122;28;20481;-43
2021/03/13 06:47:46;;;;;;;2.27;0.83;;;11.40;52.80;;;;;;5068338;28;20450;-44
2021/03/13 06:50:15;;;;;;;2.70;1.10;;;11.60;52.40;;;;;;5071018;28;20190;-44
2021/03/13 06:52:43;;;;;;;5.87;1.00;;;11.50;51.90;;;;;;5070539;28;20962;-43
2021/03/13 06:55:18;;;;;;;2.67;1.10;;;11.60;52.00;;;;;;5071100;28;20949;-44
2021/03/13 06:57:47;;;;;;;3.70;0.90;;;11.90;51.90;;;;;;5067757;28;20447;-43
2021/03/13 07:00:26;;;;;;;4.00;1.50;;;12.00;51.40;;;;;;5070886;28;20937;-44
2021/03/13 07:02:52;;;;;;;1.73;1.00;;;12.20;51.30;;;;;;5066515;28;21001;-43
2021/03/13 07:05:27;;;;;;;1.73;1.00;;;12.20;51.00;;;;;;5056703;28;20565;-44
2021/03/13 07:07:52;;;;;;;2.47;0.83;;;12.30;50.90;;;;;;5070793;28;20200;-44
2021/03/13 07:10:27;;;;;;;1.10;0.83;;;12.40;50.70;;;;;;5071332;28;20952;-43
2021/03/13 07:12:55;;;;;;;2.47;1.23;;;12.30;50.50;;;;;;5072072;28;20283;-44
2021/03/13 07:15:25;;;;;;;1.43;0.80;;;12.40;50.50;;;;;;5067133;28;20435;-45
2021/03/13 07:17:59;;;;;;;2.20;2.07;;;12.70;50.50;;;;;;5069995;28;20446;-43
2021/03/13 07:20:31;;;;;;;2.40;0.90;;;12.70;49.60;;;;;;5066887;28;20434;-45
2021/03/13 07:22:59;;;;;;;1.93;1.00;;;12.80;49.80;;;;;;5071471;28;20438;-43
2021/03/13 07:25:26;;;;;;;1.47;0.60;;;13.00;49.30;;;;;;5060812;28;20582;-43
2021/03/13 07:27:59;;;;;;;1.83;0.97;;;13.00;48.90;;;;;;5068731;28;20481;-43
2021/03/13 07:30:27;;;;;;;1.37;0.80;;;13.20;48.70;;;;;;5064851;28;20876;-44
2021/03/13 07:33:12;;;;;;;7.77;0.80;;;13.00;48.10;;;;;;5067037;28;20971;-47
2021/03/13 07:35:41;;;;;;;1.37;0.90;;;13.10;48.50;;;;;;5068442;28;20445;-44
2021/03/13 07:38:12;;;;;;;1.60;0.90;;;13.20;47.80;;;;;;5066676;28;20513;-44
2021/03/13 07:40:46;;;;;;;1.03;0.80;;;13.10;47.70;;;;;;5068697;28;20438;-44
2021/03/13 07:43:17;;;;;;;4.40;1.00;;;13.30;47.90;;;;;;5067337;28;20446;-44
2021/03/13 07:45:47;;;;;;;1.67;1.00;;;13.60;47.30;;;;;;5060450;28;20498;-44
2021/03/13 07:48:14;;;;;;;1.10;0.80;;;13.60;47.00;;;;;;5070742;28;20583;-44
2021/03/13 07:50:41;;;;;;;1.90;0.90;;;14.00;46.70;;;;;;5071220;28;20434;-47
2021/03/13 07:53:09;;;;;;;1.20;0.80;;;14.20;46.40;;;;;;5065470;28;20439;-44
2021/03/13 07:55:36;;;;;;;5.27;1.13;;;13.80;45.40;;;;;;5064650;28;20530;-44
2021/03/13 07:58:02;;;;;;;1.00;0.90;;;13.60;46.00;;;;;;5069421;28;20438;-44
2021/03/13 08:00:44;;;;;;;2.50;0.97;;;13.20;46.30;;;;;;5066430;28;20488;-44
2021/03/13 08:03:45;;;;;;;2.30;0.77;;;12.60;46.70;;;;;;5068099;28;20446;-43
2021/03/13 08:06:16;;;;;;;4.73;1.23;;;12.70;47.40;;;;;;5068658;28;20485;-43
2021/03/13 08:08:46;;;;;;;4.33;1.43;;;12.80;47.50;;;;;;5063911;28;21001;-43
2021/03/13 08:11:19;;;;;;;0.90;0.70;;;12.90;47.10;;;;;;5071059;28;20426;-43
2021/03/13 08:13:50;;;;;;;2.40;0.83;;;12.60;46.90;;;;;;5071840;28;20812;-44
2021/03/13 08:16:19;;;;;;;2.33;0.77;;;12.50;47.60;;;;;;5071119;28;20929;-44
2021/03/13 08:18:53;;;;;;;2.83;1.00;;;12.60;48.10;;;;;;5057901;28;20441;-43
2021/03/13 08:21:21;;;;;;;0.90;0.87;;;12.20;46.90;;;;;;5071304;28;20434;-43
2021/03/13 08:23:54;;;;;;;7.63;1.00;;;12.00;47.20;;;;;;5071046;28;20441;-43
2021/03/13 08:26:22;;;;;;;3.30;0.63;;;12.00;47.60;;;;;;5071332;28;20493;-43
2021/03/13 08:28:48;;;;;;;1.20;0.60;;;12.20;47.60;;;;;;5062065;28;20973;-43
2021/03/13 08:31:22;;;;;;;0.97;0.60;;;12.30;46.90;;;;;;5069364;28;20462;-43
2021/03/13 08:33:52;;;;;;;0.80;0.60;;;12.00;46.40;;;;;;5063066;28;20215;-43
2021/03/13 08:36:26;;;;;;;2.23;0.83;;;11.80;46.70;;;;;;5066035;28;20853;-43
2021/03/13 08:38:56;;;;;;;2.13;1.73;;;12.00;47.00;;;;;;5061277;28;20481;-43
2021/03/13 08:41:43;;;;;;;0.80;0.63;;;12.20;47.20;;;;;;5067982;28;20474;-43
2021/03/13 08:44:29;;;;;;;0.70;0.57;;;12.20;45.70;;;;;;5071023;28;20941;-43
2021/03/13 08:46:59;;;;;;;3.70;0.80;;;12.10;45.60;;;;;;5070652;28;20944;-43
2021/03/13 08:49:25;;;;;;;1.17;0.80;;;12.30;45.70;;;;;;5054120;28;20437;-43
2021/03/13 08:52:09;;;;;;;1.70;0.83;;;12.50;45.60;;;;;;5070890;28;20438;-44
2021/03/13 08:54:37;;;;;;;6.37;0.67;;;12.70;45.00;;;;;;5054682;28;20495;-44
2021/03/13 08:57:13;;;;;;;2.80;0.93;;;12.60;44.50;;;;;;5071444;28;20430;-44
2021/03/13 08:59:41;;;;;;;1.73;1.20;;;12.60;43.90;;;;;;5057478;28;20453;-46
2021/03/13 09:02:12;;;;;;;1.50;0.70;;;12.70;43.70;;;;;;5071391;28;20760;-45
2021/03/13 09:04:40;;;;;;;0.80;0.80;;;12.60;43.30;;;;;;5050747;28;20887;-43
2021/03/13 09:07:07;;;;;;;1.43;1.07;;;12.80;43.50;;;;;;5064407;28;20513;-43
2021/03/13 09:09:35;;;;;;;1.70;1.10;;;12.60;43.20;;;;;;5058951;28;20441;-43
2021/03/13 09:12:03;;;;;;;4.20;0.93;;;12.70;43.90;;;;;;5069963;28;20422;-43
2021/03/13 09:14:29;;;;;;;1.93;1.00;;;12.80;43.60;;;;;;5064227;28;20910;-43
2021/03/13 09:16:55;;;;;;;1.80;0.90;;;12.70;43.00;;;;;;5072176;28;20464;-44
2021/03/13 09:19:23;;;;;;;0.70;0.60;;;12.70;43.20;;;;;;5063584;28;20862;-44
2021/03/13 09:21:50;;;;;;;1.63;0.70;;;12.60;43.10;;;;;;5069905;28;20188;-43
2021/03/13 09:24:22;;;;;;;0.80;0.80;;;12.80;43.20;;;;;;5064061;28;20790;-44
2021/03/13 09:27:00;;;;;;;1.50;0.70;;;12.60;42.60;;;;;;5073657;28;20471;-44
2021/03/13 09:29:32;;;;;;;4.87;1.13;;;12.60;43.30;;;;;;5065658;28;20430;-43
2021/03/13 09:32:02;;;;;;;0.80;0.60;;;12.60;43.00;;;;;;5068079;28;20848;-43
2021/03/13 09:34:30;;;;;;;2.93;1.00;;;12.60;42.80;;;;;;5068138;28;20434;-45
2021/03/13 09:36:56;;;;;;;0.70;0.70;;;12.80;42.90;;;;;;5073808;28;20434;-43
2021/03/13 09:39:25;;;;;;;4.50;0.80;;;12.80;42.30;;;;;;5074221;28;20905;-44
2021/03/13 09:42:07;;;;;;;2.77;1.30;;;13.00;42.70;;;;;;5073549;28;20422;-44
2021/03/13 09:44:34;;;;;;;1.37;0.67;;;13.00;42.50;;;;;;5074343;28;20469;-44
2021/03/13 09:47:01;;;;;;;1.93;0.60;;;13.10;42.50;;;;;;5073830;28;20517;-43
2021/03/13 09:49:26;;;;;;;0.80;0.70;;;13.00;42.10;;;;;;5072293;28;20426;-44
2021/03/13 09:51:52;;;;;;;2.17;0.80;;;12.80;42.50;;;;;;5073610;28;20441;-45
2021/03/13 09:54:19;;;;;;;0.73;0.60;;;12.80;42.40;;;;;;5060230;28;20568;-47
2021/03/13 09:56:45;;;;;;;2.60;0.80;;;13.10;43.00;;;;;;5037296;28;20216;-45
2021/03/13 09:59:10;;;;;;;1.40;0.70;;;13.20;42.30;;;;;;5071136;28;20474;-45
2021/03/13 10:01:37;;;;;;;2.70;1.00;;;13.20;42.00;;;;;;5071370;28;20792;-45
2021/03/13 10:04:03;;;;;;;2.20;0.80;;;13.00;41.90;;;;;;5071307;28;20319;-45
2021/03/13 10:06:29;;;;;;;1.00;0.90;;;13.20;42.40;;;;;;5066927;28;20492;-48
2021/03/13 10:08:58;;;;;;;1.10;0.80;;;13.20;42.10;;;;;;5068075;28;20435;-47
2021/03/13 10:11:42;;;;;;;1.43;1.10;;;13.30;42.00;;;;;;5070439;28;20302;-45
2021/03/13 10:14:20;;;;;;;1.47;0.67;;;13.30;42.60;;;;;;5072523;28;20842;-45
2021/03/13 10:16:46;;;;;;;1.20;0.60;;;13.50;42.30;;;;;;5066908;28;20564;-47
2021/03/13 10:19:35;;;;;;;1.23;0.70;;;13.50;42.30;;;;;;5072635;28;20899;-45
2021/03/13 10:22:12;;;;;;;1.70;0.60;;;13.30;42.40;;;;;;5071866;28;20442;-46
2021/03/13 10:24:48;;;;;;;2.63;0.70;;;13.30;42.70;;;;;;5063373;28;20562;-45
2021/03/13 10:27:28;;;;;;;2.87;1.23;;;13.50;42.80;;;;;;5068110;28;20515;-48
2021/03/13 10:29:59;;;;;;;1.57;0.80;;;13.60;42.60;;;;;;5071627;28;20448;-47
2021/03/13 10:32:30;;;;;;;1.20;0.70;;;13.40;42.40;;;;;;5061992;28;20481;-46
2021/03/13 10:35:13;;;;;;;1.17;1.00;;;13.30;42.80;;;;;;5064513;28;20435;-45
2021/03/13 10:37:41;;;;;;;1.17;0.90;;;13.20;42.90;;;;;;5071957;28;20446;-46
2021/03/13 10:40:27;;;;;;;0.80;0.70;;;13.10;43.10;;;;;;5071318;28;20441;-44
2021/03/13 10:42:52;;;;;;;0.70;0.70;;;13.10;43.30;;;;;;5068367;28;20442;-44
2021/03/13 10:45:19;;;;;;;0.70;0.60;;;13.20;43.20;;;;;;5069123;28;20478;-44
2021/03/13 10:47:45;;;;;;;1.43;0.80;;;13.10;43.40;;;;;;5068374;28;20199;-46
2021/03/13 10:50:25;;;;;;;1.70;0.93;;;13.20;43.60;;;;;;5060255;28;20446;-44
2021/03/13 10:52:51;;;;;;;1.87;1.20;;;13.30;43.50;;;;;;5062309;28;20496;-45
2021/03/13 10:55:16;;;;;;;0.70;0.70;;;13.50;43.40;;;;;;5067405;28;20438;-44
2021/03/13 10:58:00;;;;;;;2.73;0.60;;;13.40;43.10;;;;;;5071864;28;20195;-46
2021/03/13 11:00:26;;;;;;;1.30;0.90;;;13.40;43.10;;;;;;5070773;28;20253;-44
2021/03/13 11:02:51;;;;;;;0.77;0.53;;;13.20;43.30;;;;;;5071666;28;20437;-44
2021/03/13 11:05:17;;;;;;;2.80;0.93;;;12.80;43.30;;;;;;5071055;28;20302;-45
2021/03/13 11:07:43;;;;;;;1.27;0.80;;;12.90;43.80;;;;;;5071744;28;20192;-44
2021/03/13 11:10:09;;;;;;;0.90;0.77;;;12.90;43.60;;;;;;5063814;28;20259;-45
2021/03/13 11:12:34;;;;;;;0.60;0.53;;;12.90;43.30;;;;;;5067708;28;20207;-44
2021/03/13 11:15:00;;;;;;;1.50;0.80;;;13.10;43.50;;;;;;5071400;28;20438;-44
2021/03/13 11:17:26;;;;;;;3.70;0.80;;;13.20;43.10;;;;;;5071336;28;20188;-45
2021/03/13 11:19:51;;;;;;;1.10;0.97;;;13.20;42.80;;;;;;5061965;28;20195;-44
2021/03/13 11:22:17;;;;;;;1.07;0.70;;;13.10;42.80;;;;;;5069541;28;20196;-44
2021/03/13 11:24:43;;;;;;;3.03;0.70;;;13.00;42.60;;;;;;5051855;28;20220;-44
2021/03/13 11:27:08;;;;;;;1.60;0.90;;;13.00;42.50;;;;;;5071333;28;20441;-44
2021/03/13 11:29:34;;;;;;;1.80;0.70;;;13.00;42.70;;;;;;5069904;28;20284;-45
2021/03/13 11:32:00;;;;;;;0.80;0.70;;;13.30;42.50;;;;;;5060103;28;20229;-44
2021/03/13 11:34:25;;;;;;;2.70;0.67;;;13.30;42.20;;;;;;5071012;28;20230;-44
2021/03/13 11:36:52;;;;;;;2.10;1.00;;;13.30;42.10;;;;;;5068482;28;20195;-43
2021/03/13 11:39:18;;;;;;;0.80;0.50;;;13.20;41.80;;;;;;5069772;28;20647;-43
2021/03/13 11:41:44;;;;;;;3.60;0.60;;;13.10;42.00;;;;;;5063828;28;20496;-44
2021/03/13 11:44:10;;;;;;;1.00;0.83;;;13.10;42.50;;;;;;5071573;28;20219;-44
2021/03/13 11:46:36;;;;;;;1.40;0.70;;;13.20;42.60;;;;;;5058747;28;20318;-43
2021/03/13 11:49:02;;;;;;;0.87;0.60;;;13.30;42.50;;;;;;5053118;28;21237;-43
2021/03/13 11:51:27;;;;;;;0.80;0.80;;;13.20;42.30;;;;;;5069951;28;20683;-43
2021/03/13 11:53:53;;;;;;;0.70;0.60;;;13.20;42.30;;;;;;5072139;28;20566;-43
2021/03/13 11:56:18;;;;;;;1.17;0.70;;;13.20;42.60;;;;;;5071121;28;20196;-44
2021/03/13 11:58:44;;;;;;;2.60;0.90;;;13.20;42.60;;;;;;5070896;28;20271;-43
2021/03/13 12:01:09;;;;;;;1.70;0.90;;;13.30;42.20;;;;;;5068880;28;20199;-44
2021/03/13 12:03:35;;;;;;;1.73;0.70;;;13.30;42.00;;;;;;5071070;28;20188;-45
2021/03/13 12:06:01;;;;;;;0.90;0.60;;;13.30;41.90;;;;;;5068851;28;20706;-44
2021/03/13 12:08:26;;;;;;;0.70;0.60;;;13.40;42.00;;;;;;5069408;28;20195;-44
2021/03/13 12:10:52;;;;;;;1.10;1.00;;;13.50;41.80;;;;;;5065869;28;20197;-44
2021/03/13 12:13:17;;;;;;;0.93;0.63;;;13.40;41.70;;;;;;5060195;28;20272;-44
2021/03/13 12:15:43;;;;;;;0.70;0.70;;;13.40;42.70;;;;;;5066920;28;20287;-43
2021/03/13 12:18:09;;;;;;;1.43;0.70;;;13.30;42.40;;;;;;5070638;28;20573;-43
2021/03/13 12:20:35;;;;;;;0.93;0.70;;;13.40;42.60;;;;;;5061565;28;20860;-44
2021/03/13 12:23:01;;;;;;;1.20;0.97;;;13.50;42.50;;;;;;5070621;28;20442;-44
2021/03/13 12:25:27;;;;;;;2.73;0.80;;;13.30;42.70;;;;;;5069977;28;20223;-44
2021/03/13 12:27:52;;;;;;;1.13;0.70;;;13.30;43.00;;;;;;5070339;28;20438;-44
2021/03/13 12:30:19;;;;;;;1.30;0.90;;;13.40;43.50;;;;;;5070032;28;20190;-44
2021/03/13 12:32:45;;;;;;;0.70;0.60;;;13.40;43.80;;;;;;5069739;28;20286;-44
2021/03/13 12:35:11;;;;;;;0.97;0.47;;;13.30;44.00;;;;;;5068356;28;20513;-43
2021/03/13 12:37:39;;;;;;;1.27;1.10;;;13.20;44.40;;;;;;5058294;28;20679;-44
2021/03/13 12:40:06;;;;;;;0.93;0.50;;;13.30;44.80;;;;;;5069533;28;20442;-44
2021/03/13 12:42:32;;;;;;;1.47;0.60;;;13.20;44.90;;;;;;5070901;28;20449;-44
2021/03/13 12:44:58;;;;;;;0.90;0.60;;;13.20;45.40;;;;;;5062968;28;20481;-44
2021/03/13 12:47:23;;;;;;;0.70;0.70;;;13.30;45.20;;;;;;5064463;28;20204;-44
2021/03/13 12:49:49;;;;;;;1.33;0.70;;;13.30;45.50;;;;;;5073604;28;20203;-44
2021/03/13 12:52:15;;;;;;;0.70;0.70;;;13.20;45.80;;;;;;5074356;28;20566;-44
2021/03/13 12:54:40;;;;;;;0.70;0.70;;;13.40;46.10;;;;;;5073146;28;21907;-44